Airfield :
LOGIN :

Register | Disclaimer

   EN    FR    IT 

 










Legend :    VFR   Marginal VFR   IFR   Intensive IFR   Very Intensive IFR
Visi :
Ceiling :
>= 8 km
>= 3000ft
5 to 8 km
1000 to 3000 ft
1500m to 5 km
500 to 1000 ft
800 to 1500m
200 to 500 ft
< 800m
< 200 ft
Symbols :   Thunderstorms  Fog  Heavy snow  Heavy precipitations  Wind > 20 kt
SIGMETs :     Misc.  Thunderstorms  Icing  Turbulence  Mountain Waves  Volcanic Ashes






- Airport Elevation : 74 ft
- IATA code : EIN


EHEH - Eindhoven

CURRENT METAR :
  • 261525Z AUTO 15005KT 130V230 9999 TS FEW030CB OVC130 21/13 Q1012 BLU TEMPO 25018G32KT 2000 TSRAGR SCT020CB BKN030

EXPIRED METARs :
  • 261455Z AUTO 13006KT 110V180 9999 FEW025CB OVC230 21/15 Q1012 RETS BLU TEMPO 25018G32KT 2000 TSRAGR SCT020CB BKN030
  • 261425Z AUTO 12006KT 060V220 9999 -RA FEW021 FEW023CB SCT040 BKN047 21/15 Q1012 RERA REDZ BLU TEMPO 25018G32KT 2000 TSRAGR SCT020CB BKN030
  • 261355Z AUTO 14002KT 9999 FEW039 BKN054 OVC061 21/15 Q1012 BLU TEMPO 25018G32KT 2000 TSRAGR SCT020CB BKN030
  • 261338Z AUTO 11003KT 9999 FEW027CB BKN059 BKN085 21/15 Q1013 BLU TEMPO 22015G25KT 4500 SHRA SCT030CB
  • 261325Z AUTO 17003KT 170V270 9999 FEW014 FEW020CB SCT026 BKN054 21/16 Q1013 RERA REDZ BLU TEMPO 22015G25KT 4500 SHRA SCT030CB
  • 261317Z AUTO 20003KT 180V260 9999 RA FEW015CB SCT036 BKN054 20/17 Q1013 BLU TEMPO 22015G25KT 4500 SHRA SCT030CB
  • 261255Z AUTO 13006KT 110V200 9999 FEW039 OVC094 20/14 Q1013 BLU TEMPO 22015G25KT 4500 SHRA SCT030CB
  • 261225Z AUTO 12006KT 090V180 9999 OVC099 20/14 Q1013 BLU TEMPO 22015G25KT 4500 SHRA SCT030CB
  • 261214Z AUTO 12007KT 030V160 9999 OVC099 21/14 Q1013 BLU TEMPO 22015G25KT 4500 SHRA SCT030CB
  • 261155Z AUTO 12006KT 070V170 9999 BKN099 OVC100 21/14 Q1014 BLU TEMPO 21015G25KT 4500 SHRA SCT030CB
  • 261125Z AUTO 11005KT 060V190 9999 FEW070 SCT081 OVC100 20/14 Q1014 REDZ BLU NOSIG
  • 261055Z AUTO 12005KT 110V180 9999 -RA FEW033 SCT057 BKN074 19/14 Q1014 RERA REDZ BLU NOSIG

TAF TAF EHEH
Valid from the 26 at 12:00 until the 27 at 18:00 UTC


261138Z 2612/2718 15006KT 9999 FEW035
TEMPO 2612/2619 22015G25KT 4000 SHRA SCT030CB BKN040
PROB40
TEMPO 2612/2618 25018G32KT 2000 TSRAGR SCT020CB BKN030
BECMG 2616/2618 22005KT
PROB40 2621/2702 1800 BR MIFG
TEMPO 2712/2718 FEW015 SCT025CB



MET'MAP, your aeronautical weather chart ! - Copyright ORBIFLY December 2007 - Disclaimer

ORBIFLY MET'MAP TEAM :

Programming & Development : Alexandra Zaïnal
Original concept : Baudouin d'Aumeries
Technical & hardware support : Manuel Goepfert
Assistance : Marc-Olivier Méhu




SOURCES & CREDITS :

   NOAA